Albany, Nebraska
Current Conditions -  °F | °C
As of 9:55 AM on Monday 22 Dec 2014 (Local Time) from KHDE Reporting Station
Overcast Overcast  
Wind Chill: 32°   Ceiling: 6000
Heat Index: 39°   Visibility: 10mi
Dew Point: 35°   Wind: 9mph
Humidity: 86%   Direction: 290°WNW
Pressure: 29.57"   Gusts: NA
Location:  40.2849°N, 99.6171°W
Report Text: KHDE 221555Z AUTO 29008KT 10SM BKN060 OVC120 04/02 A2957 RMK AO2 T00370015
Loading
Personal Weather Stations






























Interactive Weather Map New forecast layout! Learn more

10-Day Weather Forecast

Advertisements
Track Severe Weather on mobile